Zhe Pu Tuo 2012 — BKRA5 — position and weather

sailwx.info

Track history (hours):
 
Tides and Currents Weather Stations Pressure Air Temp Water Temp Dewpoint Dewpoint Depression Visibility Wind Speed Wind Dir Waves Ship Positions

Zhe Pu Tuo 2012

Last reported at 2016-Jun-26 00:32 UTC. Time now 2016-Jun-26 01:09 UTC.
Position N 39°05' E 118°55'.

Length 57 m; draft 3.7 m.

Type: Tug. MMSI: 412763040.

Date/timePositionNaut miles runAvg speedWind from/ knotsBaromVisibWave heightAir tempDewpointWater temp
2016-Jun-26 00:32N 39°05' E 118°55'0 0.0
2016-Jun-25 23:20N 39°05' E 118°55'0 0.0
2016-Jun-25 22:08N 39°05' E 118°55'0 0.0
2016-Jun-25 08:11N 39°05' E 118°55'0 0.0
2016-Jun-24 11:29N 39°05' E 118°55'0 0.0
2016-Jun-24 10:14N 39°05' E 118°55'0 0.1
2016-Jun-24 09:31N 39°05' E 118°55'1 0.8
2016-Jun-24 08:33N 39°04' E 118°55'1 0.0
2016-Jun-22 12:29N 39°05' E 118°54'0 0.0
2016-Jun-22 11:32N 39°05' E 118°54'0 0.0
2016-Jun-22 09:11N 39°05' E 118°54'0 0.1
2016-Jun-22 08:26N 39°05' E 118°54'47 1.7
2016-Jun-21 05:33N 38°53' E 117°56'7 6.6
2016-Jun-21 04:33N 38°58' E 117°50'5 2.7
2016-Jun-21 02:32N 38°59' E 117°43'0 0.0
2016-Jun-21 01:26N 38°59' E 117°43'0 0.0
2016-Jun-20 20:20N 38°59' E 117°43'0 0.0
2016-Jun-20 17:26N 38°59' E 117°43'0 0.0
2016-Jun-20 12:32N 38°59' E 117°43'0 0.0
2016-Jun-20 10:26N 38°59' E 117°43'0 0.0
2016-Jun-20 08:32N 38°59' E 117°43'0 0.0
2016-Jun-20 07:33N 38°59' E 117°43'0 0.0
2016-Jun-20 06:33N 38°59' E 117°43'0 0.0
2016-Jun-20 05:32N 38°59' E 117°43'0 0.0
2016-Jun-20 04:33N 38°59' E 117°43'0 0.0
2016-Jun-20 03:33N 38°59' E 117°43'0 0.0
2016-Jun-20 02:33N 38°59' E 117°43'0 0.0
2016-Jun-20 01:33N 38°59' E 117°43'0 0.0
2016-Jun-20 00:33N 38°59' E 117°43'0 0.0
2016-Jun-19 23:33N 38°59' E 117°43'0 0.0
2016-Jun-19 22:33N 38°59' E 117°43'0 0.0
2016-Jun-19 21:33N 38°59' E 117°43'0 0.0
2016-Jun-19 20:33N 38°59' E 117°43'0 0.0
2016-Jun-19 19:33N 38°59' E 117°43'0 0.0
2016-Jun-19 18:33N 38°59' E 117°43'0 0.0
2016-Jun-19 17:33N 38°59' E 117°43'0 0.0
2016-Jun-19 16:33N 38°59' E 117°43'1 0.7
2016-Jun-19 15:33N 38°59' E 117°44'9 8.7
2016-Jun-19 14:32N 38°56' E 117°55'9 9.2
2016-Jun-19 13:33N 38°51' E 118°04'9 8.8
2016-Jun-19 12:33N 38°43' E 118°10'21 2.6
2016-Jun-19 04:30N 38°27' E 118°27'0 0.0
2016-Jun-19 03:32N 38°27' E 118°27'  
Track history (hours):
 
Tides and Currents Weather Stations Pressure Air Temp Water Temp Dewpoint Dewpoint Depression Visibility Wind Speed Wind Dir Waves Ship Positions

Zhe Pu Tuo 2012

Last reported at 2016-Jun-26 00:32 UTC. Time now 2016-Jun-26 01:09 UTC.
Position N 39°05' E 118°55'.

Length 57 m; draft 3.7 m.

Type: Tug. MMSI: 412763040.

Date/timePositionNaut miles runAvg speedWind from/ knotsBaromVisibWave heightAir tempDewpointWater temp
2016-Jun-26 00:32N 39°05' E 118°55'0 0.0
2016-Jun-25 23:20N 39°05' E 118°55'0 0.0
2016-Jun-25 22:08N 39°05' E 118°55'0 0.0
2016-Jun-25 08:11N 39°05' E 118°55'0 0.0
2016-Jun-24 11:29N 39°05' E 118°55'0 0.0
2016-Jun-24 10:14N 39°05' E 118°55'0 0.1
2016-Jun-24 09:31N 39°05' E 118°55'1 0.8
2016-Jun-24 08:33N 39°04' E 118°55'1 0.0
2016-Jun-22 12:29N 39°05' E 118°54'0 0.0
2016-Jun-22 11:32N 39°05' E 118°54'0 0.0
2016-Jun-22 09:11N 39°05' E 118°54'0 0.1
2016-Jun-22 08:26N 39°05' E 118°54'47 1.7
2016-Jun-21 05:33N 38°53' E 117°56'7 6.6
2016-Jun-21 04:33N 38°58' E 117°50'5 2.7
2016-Jun-21 02:32N 38°59' E 117°43'0 0.0
2016-Jun-21 01:26N 38°59' E 117°43'0 0.0
2016-Jun-20 20:20N 38°59' E 117°43'0 0.0
2016-Jun-20 17:26N 38°59' E 117°43'0 0.0
2016-Jun-20 12:32N 38°59' E 117°43'0 0.0
2016-Jun-20 10:26N 38°59' E 117°43'0 0.0
2016-Jun-20 08:32N 38°59' E 117°43'0 0.0
2016-Jun-20 07:33N 38°59' E 117°43'0 0.0
2016-Jun-20 06:33N 38°59' E 117°43'0 0.0
2016-Jun-20 05:32N 38°59' E 117°43'0 0.0
2016-Jun-20 04:33N 38°59' E 117°43'0 0.0
2016-Jun-20 03:33N 38°59' E 117°43'0 0.0
2016-Jun-20 02:33N 38°59' E 117°43'0 0.0
2016-Jun-20 01:33N 38°59' E 117°43'0 0.0
2016-Jun-20 00:33N 38°59' E 117°43'0 0.0
2016-Jun-19 23:33N 38°59' E 117°43'0 0.0
2016-Jun-19 22:33N 38°59' E 117°43'0 0.0
2016-Jun-19 21:33N 38°59' E 117°43'0 0.0
2016-Jun-19 20:33N 38°59' E 117°43'0 0.0
2016-Jun-19 19:33N 38°59' E 117°43'0 0.0
2016-Jun-19 18:33N 38°59' E 117°43'0 0.0
2016-Jun-19 17:33N 38°59' E 117°43'0 0.0
2016-Jun-19 16:33N 38°59' E 117°43'1 0.7
2016-Jun-19 15:33N 38°59' E 117°44'9 8.7
2016-Jun-19 14:32N 38°56' E 117°55'9 9.2
2016-Jun-19 13:33N 38°51' E 118°04'9 8.8
2016-Jun-19 12:33N 38°43' E 118°10'21 2.6
2016-Jun-19 04:30N 38°27' E 118°27'0 0.0
2016-Jun-19 03:32N 38°27' E 118°27'  

Dump ship's entire track history